createdAt,value
2022-07-29T00:01:43.947Z,39.99
2022-07-29T00:04:13.158Z,40.15
2022-07-29T00:06:43.099Z,40.28
2022-07-29T00:09:11.085Z,40.27
2022-07-29T00:11:39.658Z,40.04
2022-07-29T00:14:07.615Z,40.13
2022-07-29T00:16:36.328Z,39.92
2022-07-29T00:19:05.229Z,39.99
2022-07-29T00:21:35.797Z,40.06
2022-07-29T00:24:05.411Z,40.08
2022-07-29T00:26:33.589Z,40.34
2022-07-29T00:29:32.595Z,40.82
2022-07-29T00:31:49.977Z,40.46
2022-07-29T00:34:35.446Z,40.55
2022-07-29T00:37:03.733Z,40.67
2022-07-29T00:39:32.926Z,40.70
2022-07-29T00:42:00.892Z,40.98
2022-07-29T00:44:29.004Z,40.70
2022-07-29T00:46:56.985Z,40.92
2022-07-29T00:49:24.967Z,40.98
2022-07-29T00:51:53.440Z,40.97
2022-07-29T00:54:21.391Z,41.13
2022-07-29T00:56:51.401Z,41.15
2022-07-29T00:59:19.596Z,42.40
2022-07-29T01:01:47.619Z,42.10
2022-07-29T01:04:15.984Z,42.24
2022-07-29T01:06:45.484Z,42.15
2022-07-29T01:09:14.974Z,42.52
2022-07-29T01:11:43.415Z,41.66
2022-07-29T01:14:14.286Z,41.54
2022-07-29T01:16:47.722Z,43.52
2022-07-29T01:19:44.928Z,43.11
2022-07-29T01:22:27.024Z,45.78
2022-07-29T01:25:12.190Z,43.78
2022-07-29T01:27:47.047Z,44.60
2022-07-29T01:30:17.172Z,42.35
2022-07-29T01:32:51.908Z,42.31
2022-07-29T01:35:24.934Z,42.72
2022-07-29T01:37:59.400Z,42.32
2022-07-29T01:40:33.203Z,42.36
2022-07-29T01:43:10.571Z,42.66
2022-07-29T01:45:43.636Z,43.16
2022-07-29T01:48:15.231Z,42.82
2022-07-29T01:50:49.384Z,42.72
2022-07-29T01:53:25.802Z,43.18
2022-07-29T01:55:54.915Z,43.80
2022-07-29T01:58:29.743Z,41.88
2022-07-29T02:01:00.397Z,42.08
2022-07-29T02:03:30.665Z,42.21
2022-07-29T02:06:00.332Z,42.21
2022-07-29T02:08:30.184Z,42.22
2022-07-29T02:10:59.852Z,42.26
2022-07-29T02:13:30.898Z,42.37
2022-07-29T02:16:02.507Z,42.31
2022-07-29T02:18:32.589Z,42.69
2022-07-29T02:21:02.774Z,42.64
2022-07-29T02:23:33.100Z,42.71
2022-07-29T02:26:19.949Z,42.77
2022-07-29T02:28:49.361Z,42.90
2022-07-29T02:31:21.615Z,43.79
2022-07-29T02:33:50.932Z,43.67
2022-07-29T02:36:22.894Z,43.01
2022-07-29T02:38:52.497Z,42.95
2022-07-29T02:41:24.881Z,42.86
2022-07-29T02:43:57.932Z,42.89
2022-07-29T02:46:33.244Z,43.85
2022-07-29T02:49:06.298Z,43.97
2022-07-29T02:51:45.185Z,43.37
2022-07-29T02:54:22.197Z,44.32
2022-07-29T02:56:53.557Z,43.23
2022-07-29T02:59:26.927Z,42.94
2022-07-29T03:01:57.792Z,43.68
2022-07-29T03:04:29.336Z,43.43
2022-07-29T03:07:01.250Z,43.34
2022-07-29T03:09:31.593Z,44.01
2022-07-29T03:12:00.700Z,43.48
2022-07-29T03:14:29.137Z,43.51
2022-07-29T03:17:00.396Z,43.68
2022-07-29T03:19:29.075Z,43.98
2022-07-29T03:21:59.012Z,44.19
2022-07-29T03:24:32.215Z,45.04
2022-07-29T03:27:01.655Z,46.19
2022-07-29T03:29:33.433Z,44.80
2022-07-29T03:32:07.263Z,44.37
2022-07-29T03:34:38.617Z,44.31
2022-07-29T03:37:07.838Z,43.86
2022-07-29T03:39:42.451Z,43.92
2022-07-29T03:42:13.784Z,44.09
2022-07-29T03:44:46.089Z,44.02
2022-07-29T03:47:17.113Z,44.83
2022-07-29T03:49:50.086Z,44.86
2022-07-29T03:52:18.997Z,46.11
2022-07-29T03:54:47.142Z,45.58
2022-07-29T03:57:17.906Z,45.25
2022-07-29T03:59:47.126Z,45.01
2022-07-29T04:02:21.717Z,44.71
2022-07-29T04:04:51.250Z,45.10
2022-07-29T04:07:19.151Z,44.82
2022-07-29T04:09:47.098Z,44.86
2022-07-29T04:12:15.317Z,44.77
2022-07-29T04:14:43.417Z,44.73
2022-07-29T04:17:11.434Z,44.83
2022-07-29T04:19:40.942Z,44.49
2022-07-29T04:22:08.805Z,44.71
2022-07-29T04:24:36.811Z,44.54
2022-07-29T04:27:05.270Z,44.59
2022-07-29T04:29:33.248Z,44.61
2022-07-29T04:32:01.165Z,44.55
2022-07-29T04:34:29.282Z,44.43
2022-07-29T04:36:58.546Z,44.31
2022-07-29T04:39:27.229Z,44.24
2022-07-29T04:41:58.981Z,44.24
2022-07-29T04:44:28.675Z,44.74
2022-07-29T04:46:58.880Z,44.47
2022-07-29T04:49:27.452Z,44.85
2022-07-29T04:51:55.588Z,44.31
2022-07-29T04:54:24.849Z,44.77
2022-07-29T04:56:54.572Z,44.62
2022-07-29T04:59:22.444Z,44.45
2022-07-29T05:01:50.841Z,44.14
2022-07-29T05:04:19.776Z,44.20
2022-07-29T05:06:48.201Z,44.33
2022-07-29T05:09:16.458Z,44.02
2022-07-29T05:11:47.315Z,44.08
2022-07-29T05:14:15.556Z,43.82
2022-07-29T05:16:44.343Z,43.47
2022-07-29T05:19:14.558Z,43.20
2022-07-29T05:21:43.165Z,42.80
2022-07-29T05:24:11.018Z,42.70
2022-07-29T05:26:39.669Z,42.56
2022-07-29T05:29:42.885Z,42.19
2022-07-29T05:31:57.355Z,41.93
2022-07-29T05:34:26.058Z,41.76
2022-07-29T05:36:54.344Z,41.76
2022-07-29T05:39:22.635Z,41.49
2022-07-29T05:42:10.754Z,41.39
2022-07-29T05:44:40.540Z,41.12
2022-07-29T05:47:08.422Z,41.07
2022-07-29T05:49:36.386Z,40.75
2022-07-29T05:52:05.082Z,40.60
2022-07-29T05:54:33.054Z,40.46
2022-07-29T05:57:00.923Z,40.37
2022-07-29T05:59:30.640Z,40.28
2022-07-29T06:02:00.095Z,40.23
2022-07-29T06:04:28.494Z,40.16
2022-07-29T06:06:56.482Z,39.99
2022-07-29T06:09:24.791Z,39.99
2022-07-29T06:11:53.324Z,39.97
2022-07-29T06:14:21.668Z,39.86
2022-07-29T06:16:49.599Z,39.78
2022-07-29T06:19:19.149Z,39.80
2022-07-29T06:21:47.832Z,39.79
2022-07-29T06:24:17.475Z,39.68
2022-07-29T06:26:46.387Z,39.76
2022-07-29T06:29:14.260Z,39.85
2022-07-29T06:31:42.177Z,39.80
2022-07-29T06:34:10.496Z,39.76
2022-07-29T06:36:41.104Z,39.70
2022-07-29T06:39:11.695Z,39.75
2022-07-29T06:41:40.510Z,39.71
2022-07-29T06:44:10.677Z,39.55
2022-07-29T06:46:38.807Z,39.42
2022-07-29T06:49:07.117Z,39.44
2022-07-29T06:51:35.071Z,39.42
2022-07-29T06:54:06.437Z,39.40
2022-07-29T06:56:38.849Z,39.31
2022-07-29T06:59:09.653Z,39.34
2022-07-29T07:01:38.838Z,39.06
2022-07-29T07:04:07.030Z,39.02
2022-07-29T07:06:34.938Z,38.87
2022-07-29T07:09:05.191Z,38.69
2022-07-29T07:11:33.431Z,38.65
2022-07-29T07:14:03.708Z,38.63
2022-07-29T07:16:33.359Z,38.55
2022-07-29T07:19:01.772Z,38.42
2022-07-29T07:21:30.693Z,38.36
2022-07-29T07:24:00.255Z,38.19
2022-07-29T07:26:30.107Z,37.79
2022-07-29T07:28:58.787Z,37.73
2022-07-29T07:31:27.134Z,37.72
2022-07-29T07:33:55.202Z,37.13
2022-07-29T07:36:23.684Z,36.78
2022-07-29T07:38:51.964Z,37.10
2022-07-29T07:41:19.856Z,36.84
2022-07-29T07:43:49.153Z,36.28
2022-07-29T07:46:17.708Z,36.01
2022-07-29T07:48:45.727Z,36.02
2022-07-29T07:51:13.760Z,35.83
2022-07-29T07:53:42.106Z,35.54
2022-07-29T07:56:11.836Z,35.26
2022-07-29T07:58:40.859Z,35.49
2022-07-29T08:01:11.157Z,34.99
2022-07-29T08:03:39.958Z,34.87
2022-07-29T08:06:08.589Z,34.91
2022-07-29T08:08:36.517Z,34.73
2022-07-29T08:11:09.013Z,34.34
2022-07-29T08:13:38.618Z,34.58
2022-07-29T08:16:16.500Z,34.39
2022-07-29T08:18:46.163Z,34.34
2022-07-29T08:21:15.861Z,33.98
2022-07-29T08:23:57.628Z,33.97
2022-07-29T08:26:27.133Z,33.62
2022-07-29T08:28:55.026Z,33.92
2022-07-29T08:31:24.356Z,34.09
2022-07-29T08:33:52.557Z,34.14
2022-07-29T08:36:21.938Z,34.05
2022-07-29T08:38:50.477Z,33.56
2022-07-29T08:41:19.979Z,33.67
2022-07-29T08:43:48.302Z,33.39
2022-07-29T08:46:16.721Z,33.51
2022-07-29T08:48:46.587Z,33.57
2022-07-29T08:51:15.981Z,33.20
2022-07-29T08:53:45.989Z,33.30
2022-07-29T08:56:15.074Z,33.20
2022-07-29T08:58:43.551Z,33.13
2022-07-29T09:01:19.658Z,32.84
2022-07-29T09:03:51.512Z,32.28
2022-07-29T09:06:21.355Z,32.22
2022-07-29T09:08:49.672Z,32.30
2022-07-29T09:11:17.557Z,32.50
2022-07-29T09:13:46.122Z,32.30
2022-07-29T09:16:26.724Z,32.29
2022-07-29T09:19:03.795Z,32.09
2022-07-29T09:22:03.021Z,31.75
2022-07-29T09:24:41.004Z,29.79
2022-07-29T09:27:20.637Z,30.35
2022-07-29T09:29:49.028Z,31.23
2022-07-29T09:32:17.068Z,31.33
2022-07-29T09:34:46.276Z,30.98
2022-07-29T09:37:28.370Z,31.12
2022-07-29T09:39:56.639Z,29.67
2022-07-29T09:42:33.443Z,30.60
2022-07-29T09:45:01.426Z,29.74
2022-07-29T09:47:47.823Z,30.97
2022-07-29T09:50:20.747Z,29.53
2022-07-29T09:52:50.504Z,30.38
2022-07-29T09:55:19.846Z,30.00
2022-07-29T09:57:51.498Z,30.17
2022-07-29T10:00:21.470Z,29.53
2022-07-29T10:02:50.666Z,30.12
2022-07-29T10:05:22.310Z,29.89
2022-07-29T10:07:54.200Z,29.46
2022-07-29T10:10:29.467Z,29.65
2022-07-29T10:13:03.083Z,29.31
2022-07-29T10:15:40.050Z,29.55
2022-07-29T10:18:09.457Z,29.55
2022-07-29T10:20:39.731Z,29.64
2022-07-29T10:23:08.053Z,27.67
2022-07-29T10:25:36.209Z,29.08
2022-07-29T10:28:04.309Z,29.13
2022-07-29T10:30:33.096Z,29.09
2022-07-29T10:33:23.605Z,29.02
2022-07-29T10:36:06.974Z,26.49
2022-07-29T10:38:55.798Z,26.65
2022-07-29T10:41:47.542Z,26.36
2022-07-29T10:44:23.230Z,26.73
2022-07-29T10:46:53.391Z,28.15
2022-07-29T10:49:25.118Z,28.46
2022-07-29T10:52:06.712Z,28.15
2022-07-29T10:54:56.354Z,26.32
2022-07-29T10:57:53.994Z,26.10
2022-07-29T11:00:32.965Z,27.79
2022-07-29T11:03:04.668Z,26.13
2022-07-29T11:05:59.821Z,27.49
2022-07-29T11:08:29.874Z,24.59
2022-07-29T11:11:39.533Z,27.52
2022-07-29T11:14:12.262Z,24.84
2022-07-29T11:17:00.413Z,27.12
2022-07-29T11:19:30.473Z,24.71
2022-07-29T11:21:59.729Z,27.13
2022-07-29T11:24:32.037Z,27.04
2022-07-29T11:27:13.169Z,26.67
2022-07-29T11:29:50.421Z,24.57
2022-07-29T11:32:22.862Z,25.50
2022-07-29T11:35:22.291Z,26.56
2022-07-29T11:38:27.830Z,23.91
2022-07-29T11:41:23.670Z,24.14
2022-07-29T11:43:53.514Z,23.89
2022-07-29T11:46:47.732Z,26.35
2022-07-29T11:49:22.079Z,22.31
2022-07-29T11:52:02.335Z,24.27
2022-07-29T11:54:57.722Z,26.32
2022-07-29T11:57:36.525Z,25.79
2022-07-29T12:00:10.000Z,25.60
2022-07-29T12:02:43.801Z,24.73
2022-07-29T12:05:36.172Z,25.56
2022-07-29T12:08:14.536Z,25.62
2022-07-29T12:10:44.288Z,23.55
2022-07-29T12:13:14.447Z,25.62
2022-07-29T12:15:46.349Z,24.09
2022-07-29T12:18:18.669Z,25.43
2022-07-29T12:20:47.151Z,25.28
2022-07-29T12:23:17.382Z,25.41
2022-07-29T12:25:49.795Z,24.72
2022-07-29T12:28:27.401Z,25.10
2022-07-29T12:30:55.816Z,24.60
2022-07-29T12:33:28.427Z,24.79
2022-07-29T12:36:09.508Z,24.54
2022-07-29T12:38:42.486Z,23.57
2022-07-29T12:41:10.671Z,23.94
2022-07-29T12:43:39.852Z,24.46
2022-07-29T12:46:15.058Z,24.19
2022-07-29T12:48:45.475Z,22.43
2022-07-29T12:51:15.485Z,23.84
2022-07-29T12:53:43.623Z,24.17
2022-07-29T12:56:41.852Z,23.41
2022-07-29T12:59:21.199Z,20.79
2022-07-29T13:01:52.344Z,21.23
2022-07-29T13:04:28.685Z,23.46
2022-07-29T13:07:02.258Z,21.28
2022-07-29T13:09:40.630Z,22.49
2022-07-29T13:12:10.957Z,20.34
2022-07-29T13:14:43.050Z,23.37
2022-07-29T13:17:12.657Z,22.01
2022-07-29T13:19:42.685Z,22.97
2022-07-29T13:22:12.072Z,22.97
2022-07-29T13:24:51.309Z,22.54
2022-07-29T13:27:20.054Z,21.18
2022-07-29T13:29:52.209Z,23.11
2022-07-29T13:32:20.447Z,23.18
2022-07-29T13:34:57.118Z,22.94
2022-07-29T13:37:25.735Z,23.13
2022-07-29T13:39:55.090Z,23.17
2022-07-29T13:42:23.994Z,23.36
2022-07-29T13:44:53.456Z,23.24
2022-07-29T13:47:22.348Z,22.84
2022-07-29T13:50:00.199Z,23.22
2022-07-29T13:52:28.223Z,22.82
2022-07-29T13:54:56.246Z,23.39
2022-07-29T13:57:24.507Z,23.31
2022-07-29T13:59:54.554Z,23.36
2022-07-29T14:02:25.869Z,23.63
2022-07-29T14:04:54.774Z,23.69
2022-07-29T14:07:23.368Z,23.51
2022-07-29T14:09:51.484Z,23.10
2022-07-29T14:12:20.079Z,23.01
2022-07-29T14:14:48.057Z,22.85
2022-07-29T14:17:17.901Z,22.90
2022-07-29T14:19:46.149Z,22.83
2022-07-29T14:22:14.424Z,22.30
2022-07-29T14:24:43.279Z,22.23
2022-07-29T14:27:11.553Z,22.35
2022-07-29T14:29:39.685Z,22.06
2022-07-29T14:32:08.590Z,22.04
2022-07-29T14:34:39.124Z,22.15
2022-07-29T14:37:07.795Z,21.54
2022-07-29T14:39:42.351Z,22.01
2022-07-29T14:42:12.435Z,21.76
2022-07-29T14:44:42.253Z,22.13
2022-07-29T14:47:11.239Z,22.28
2022-07-29T14:49:42.816Z,22.28
2022-07-29T14:52:10.983Z,21.69
2022-07-29T14:54:39.033Z,22.08
2022-07-29T14:57:07.079Z,21.79
2022-07-29T14:59:35.294Z,22.02
2022-07-29T15:02:03.659Z,21.98
2022-07-29T15:04:32.498Z,22.14
2022-07-29T15:07:02.039Z,22.41
2022-07-29T15:09:29.972Z,22.26
2022-07-29T15:11:58.159Z,22.52
2022-07-29T15:14:26.553Z,22.52
2022-07-29T15:16:54.534Z,22.44
2022-07-29T15:19:22.500Z,22.64
2022-07-29T15:21:50.794Z,22.71
2022-07-29T15:24:20.583Z,22.72
2022-07-29T15:26:48.972Z,22.80
2022-07-29T15:29:17.272Z,23.01
2022-07-29T15:31:45.395Z,22.70
2022-07-29T15:34:13.310Z,22.53
2022-07-29T15:36:52.025Z,21.72
2022-07-29T15:39:22.761Z,21.08
2022-07-29T15:41:51.775Z,20.14
2022-07-29T15:44:20.868Z,20.12
2022-07-29T15:47:04.953Z,19.88
2022-07-29T15:49:47.688Z,19.69
2022-07-29T15:52:25.332Z,19.42
2022-07-29T15:54:57.514Z,19.57
2022-07-29T15:57:25.931Z,20.35
2022-07-29T15:59:54.378Z,20.95
2022-07-29T16:02:22.361Z,21.02
2022-07-29T16:04:50.696Z,20.46
2022-07-29T16:07:19.026Z,19.80
2022-07-29T16:09:52.495Z,19.88
2022-07-29T16:12:22.626Z,19.93
2022-07-29T16:14:51.220Z,19.80
2022-07-29T16:17:20.003Z,20.35
2022-07-29T16:19:48.246Z,20.73
2022-07-29T16:22:16.505Z,21.04
2022-07-29T16:24:44.647Z,21.05
2022-07-29T16:27:12.808Z,20.96
2022-07-29T16:29:42.019Z,21.00
2022-07-29T16:32:09.990Z,21.05
2022-07-29T16:34:38.160Z,21.57
2022-07-29T16:37:06.038Z,21.95
2022-07-29T16:39:34.014Z,21.74
2022-07-29T16:42:05.026Z,21.54
2022-07-29T16:44:34.858Z,21.31
2022-07-29T16:47:05.744Z,21.60
2022-07-29T16:49:33.604Z,21.72
2022-07-29T16:52:01.780Z,22.17
2022-07-29T16:54:29.960Z,22.29
2022-07-29T16:57:00.577Z,22.52
2022-07-29T16:59:29.478Z,22.80
2022-07-29T17:01:57.855Z,23.35
2022-07-29T17:04:28.526Z,24.33
2022-07-29T17:06:57.138Z,24.88
2022-07-29T17:09:25.513Z,25.28
2022-07-29T17:11:55.072Z,25.52
2022-07-29T17:14:25.751Z,26.14
2022-07-29T17:17:00.118Z,26.08
2022-07-29T17:19:31.962Z,26.95
2022-07-29T17:22:09.405Z,26.92
2022-07-29T17:24:40.944Z,27.03
2022-07-29T17:27:09.657Z,27.20
2022-07-29T17:29:38.707Z,27.38
2022-07-29T17:32:08.045Z,27.72
2022-07-29T17:34:38.085Z,27.71
2022-07-29T17:37:08.216Z,29.08
2022-07-29T17:39:36.489Z,28.11
2022-07-29T17:42:05.696Z,28.11
2022-07-29T17:44:36.331Z,28.26
2022-07-29T17:47:05.121Z,28.52
2022-07-29T17:49:36.312Z,28.48
2022-07-29T17:52:07.264Z,28.74
2022-07-29T17:54:35.479Z,28.98
2022-07-29T17:57:03.450Z,28.92
2022-07-29T17:59:31.764Z,28.88
2022-07-29T18:02:00.003Z,29.10
2022-07-29T18:04:29.158Z,29.21
2022-07-29T18:06:57.451Z,29.29
2022-07-29T18:09:26.922Z,29.41
2022-07-29T18:11:55.053Z,29.75
2022-07-29T18:14:22.962Z,29.80
2022-07-29T18:16:50.994Z,29.89
2022-07-29T18:19:19.210Z,29.97
2022-07-29T18:21:54.533Z,30.17
2022-07-29T18:24:25.549Z,30.23
2022-07-29T18:26:55.153Z,30.41
2022-07-29T18:29:23.212Z,30.63
2022-07-29T18:31:51.378Z,30.72
2022-07-29T18:34:19.340Z,30.88
2022-07-29T18:36:47.329Z,31.04
2022-07-29T18:39:20.884Z,31.06
2022-07-29T18:41:51.068Z,31.26
2022-07-29T18:44:22.587Z,31.48
2022-07-29T18:46:51.942Z,31.72
2022-07-29T18:49:20.679Z,31.81
2022-07-29T18:51:49.291Z,31.99
2022-07-29T18:54:18.255Z,32.22
2022-07-29T18:56:47.491Z,32.33
2022-07-29T18:59:19.565Z,32.54
2022-07-29T19:01:49.557Z,32.72
2022-07-29T19:04:18.193Z,33.13
2022-07-29T19:06:46.449Z,32.93
2022-07-29T19:09:14.820Z,33.30
2022-07-29T19:11:42.708Z,33.64
2022-07-29T19:14:10.806Z,34.21
2022-07-29T19:16:39.061Z,34.28
2022-07-29T19:19:10.044Z,34.10
2022-07-29T19:21:40.697Z,34.27
2022-07-29T19:24:13.570Z,34.26
2022-07-29T19:26:46.711Z,34.42
2022-07-29T19:29:16.064Z,35.21
2022-07-29T19:31:44.737Z,35.21
2022-07-29T19:34:14.132Z,35.06
2022-07-29T19:36:42.202Z,35.67
2022-07-29T19:39:10.396Z,35.26
2022-07-29T19:41:38.727Z,35.37
2022-07-29T19:44:06.720Z,35.50
2022-07-29T19:46:34.892Z,35.47
2022-07-29T19:49:02.855Z,35.62
2022-07-29T19:51:32.214Z,35.62
2022-07-29T19:54:00.514Z,35.66
2022-07-29T19:56:30.079Z,35.71
2022-07-29T19:58:58.616Z,35.68
2022-07-29T20:01:26.758Z,35.79
2022-07-29T20:03:54.948Z,35.92
2022-07-29T20:06:23.083Z,36.12
2022-07-29T20:08:56.708Z,36.02
2022-07-29T20:11:27.389Z,36.62
2022-07-29T20:13:55.298Z,36.39
2022-07-29T20:16:25.789Z,36.64
2022-07-29T20:18:53.958Z,36.59
2022-07-29T20:21:21.908Z,36.64
2022-07-29T20:23:49.787Z,36.59
2022-07-29T20:26:19.722Z,36.73
2022-07-29T20:28:49.483Z,37.09
2022-07-29T20:31:18.814Z,37.02
2022-07-29T20:33:46.849Z,37.04
2022-07-29T20:36:15.487Z,37.07
2022-07-29T20:38:43.707Z,37.19
2022-07-29T20:41:11.641Z,37.34
2022-07-29T20:43:40.958Z,37.31
2022-07-29T20:46:10.010Z,37.76
2022-07-29T20:48:39.632Z,37.55
2022-07-29T20:51:08.078Z,37.49
2022-07-29T20:53:38.171Z,37.74
2022-07-29T20:56:06.695Z,37.82
2022-07-29T20:58:36.201Z,37.93
2022-07-29T21:01:06.480Z,37.89
2022-07-29T21:03:34.511Z,37.97
2022-07-29T21:06:03.292Z,37.93
2022-07-29T21:08:32.061Z,37.71
2022-07-29T21:11:00.035Z,37.60
2022-07-29T21:13:28.343Z,37.51
2022-07-29T21:16:00.964Z,37.72
2022-07-29T21:18:32.619Z,38.06
2022-07-29T21:21:02.120Z,38.19
2022-07-29T21:23:30.886Z,38.08
2022-07-29T21:25:59.012Z,38.29
2022-07-29T21:28:36.874Z,38.27
2022-07-29T21:31:08.331Z,38.42
2022-07-29T21:33:38.335Z,39.25
2022-07-29T21:36:42.429Z,39.15
2022-07-29T21:38:56.651Z,39.10
2022-07-29T21:41:24.878Z,39.61
2022-07-29T21:43:53.803Z,39.61
2022-07-29T21:46:24.429Z,39.30
2022-07-29T21:48:54.024Z,38.91
2022-07-29T21:51:21.951Z,38.94
2022-07-29T21:53:50.610Z,38.80
2022-07-29T21:56:21.078Z,38.95
2022-07-29T21:58:51.743Z,39.13
2022-07-29T22:01:19.751Z,38.83
2022-07-29T22:03:47.961Z,39.80
2022-07-29T22:06:18.072Z,39.54
2022-07-29T22:08:47.884Z,40.56
2022-07-29T22:11:16.307Z,40.85
2022-07-29T22:13:44.196Z,40.95
2022-07-29T22:16:14.829Z,41.52
2022-07-29T22:18:45.021Z,41.57
2022-07-29T22:21:13.626Z,42.25
2022-07-29T22:23:43.115Z,41.69
2022-07-29T22:26:11.235Z,41.78
2022-07-29T22:28:39.117Z,41.69
2022-07-29T22:31:08.616Z,42.36
2022-07-29T22:33:37.112Z,42.17
2022-07-29T22:36:05.460Z,44.06
2022-07-29T22:38:33.838Z,43.66
2022-07-29T22:41:03.363Z,43.94
2022-07-29T22:43:31.391Z,45.36
2022-07-29T22:45:59.443Z,45.03
2022-07-29T22:48:28.118Z,44.67
2022-07-29T22:50:56.163Z,45.24
2022-07-29T22:53:24.073Z,44.92
2022-07-29T22:55:52.222Z,45.20
2022-07-29T22:58:21.619Z,45.35
2022-07-29T23:00:49.601Z,46.30
2022-07-29T23:03:17.851Z,45.97
2022-07-29T23:05:45.771Z,46.84
2022-07-29T23:08:13.698Z,46.91
2022-07-29T23:10:42.215Z,47.42
2022-07-29T23:13:10.087Z,47.77
2022-07-29T23:15:39.587Z,48.05
2022-07-29T23:18:08.113Z,48.62
2022-07-29T23:20:36.812Z,49.17
2022-07-29T23:23:04.916Z,49.34
2022-07-29T23:25:33.436Z,50.13
2022-07-29T23:28:01.648Z,50.07
2022-07-29T23:30:30.150Z,50.49
2022-07-29T23:32:59.816Z,50.20
2022-07-29T23:35:28.322Z,50.99
2022-07-29T23:37:56.221Z,50.43
2022-07-29T23:40:24.457Z,51.15
2022-07-29T23:42:52.347Z,51.41
2022-07-29T23:45:20.227Z,51.81
2022-07-29T23:47:48.349Z,51.80
2022-07-29T23:50:17.595Z,52.29
2022-07-29T23:52:45.526Z,51.65
2022-07-29T23:55:36.578Z,51.67
2022-07-29T23:58:03.030Z,51.67
